Time;durP1;ratioP1;P1;durP2;ratioP2;P2;SDS_P1;SDS_P2;PMS_P1;PMS_P2;Temp;Humidity;BMP_temperature;BMP_pressure;BME280_temperature;BME280_humidity;BME280_pressure;Samples;Min_cycle;Max_cycle;Signal;HPM_P1;HPM_P2
2021/03/28 00:01:06;;;;;;;7.68;2.58;;;6.60;1.00;;;;;;5087028;28;20072;-76
2021/03/28 00:03:36;;;;;;;8.43;2.75;;;6.50;1.00;;;;;;5087058;28;20074;-76
2021/03/28 00:06:16;;;;;;;8.30;2.97;;;6.50;1.00;;;;;;5090549;28;20617;-76
2021/03/28 00:08:46;;;;;;;7.32;2.53;;;6.50;1.00;;;;;;5088320;28;20581;-76
2021/03/28 00:11:20;;;;;;;7.38;2.45;;;6.50;1.00;;;;;;5092947;28;20071;-77
2021/03/28 00:13:53;;;;;;;12.00;3.08;;;6.50;1.00;;;;;;5083284;28;20056;-77
2021/03/28 00:16:23;;;;;;;9.05;2.60;;;6.40;1.00;;;;;;5088746;28;20052;-77
2021/03/28 00:19:02;;;;;;;7.28;2.40;;;6.30;1.00;;;;;;5088713;28;20436;-77
2021/03/28 00:21:33;;;;;;;8.98;2.75;;;6.30;1.00;;;;;;5083763;28;20711;-77
2021/03/28 00:24:17;;;;;;;11.10;2.17;;;6.40;1.00;;;;;;5087152;28;20496;-77
2021/03/28 00:26:59;;;;;;;7.63;2.58;;;6.30;1.00;;;;;;5084550;28;20091;-78
2021/03/28 00:29:27;;;;;;;9.32;2.65;;;6.30;1.00;;;;;;5090672;28;20424;-78
2021/03/28 00:31:57;;;;;;;8.63;2.90;;;6.20;1.00;;;;;;5089270;28;20226;-77
2021/03/28 00:34:27;;;;;;;6.47;2.38;;;6.10;1.00;;;;;;5083825;28;20048;-78
2021/03/28 00:36:59;;;;;;;7.70;3.28;;;6.10;1.00;;;;;;5087145;28;20135;-77
2021/03/28 00:39:45;;;;;;;7.30;2.50;;;6.10;1.00;;;;;;5093451;28;20076;-77
2021/03/28 00:42:29;;;;;;;7.05;2.35;;;6.10;1.00;;;;;;5091750;28;20044;-75
2021/03/28 00:45:02;;;;;;;10.18;2.63;;;6.10;1.00;;;;;;5088800;28;20048;-76
2021/03/28 00:47:33;;;;;;;6.20;2.13;;;6.10;1.00;;;;;;5087156;28;20071;-75
2021/03/28 00:50:08;;;;;;;6.78;2.42;;;6.20;1.00;;;;;;5089346;28;20055;-76
2021/03/28 00:52:42;;;;;;;5.57;2.00;;;6.20;1.00;;;;;;5085172;28;20413;-76
2021/03/28 00:55:19;;;;;;;5.10;1.80;;;6.30;1.00;;;;;;5086033;28;20044;-76
2021/03/28 00:58:00;;;;;;;8.88;2.30;;;6.30;1.00;;;;;;5089945;28;20044;-77
2021/03/28 01:01:02;;;;;;;7.45;2.10;;;6.30;1.00;;;;;;5091533;28;20048;-77
2021/03/28 01:03:37;;;;;;;9.52;2.17;;;6.20;1.00;;;;;;5060281;28;20254;-77
2021/03/28 01:06:17;;;;;;;6.25;1.90;;;6.10;1.00;;;;;;5086956;28;20044;-76
2021/03/28 01:08:55;;;;;;;6.18;1.70;;;6.10;1.00;;;;;;5087854;28;20138;-76
2021/03/28 01:11:49;;;;;;;5.00;1.95;;;6.10;1.00;;;;;;5090614;28;20412;-77
2021/03/28 01:14:41;;;;;;;5.82;2.28;;;6.10;1.00;;;;;;5081518;28;20068;-77
2021/03/28 01:17:31;;;;;;;7.63;1.92;;;6.10;1.00;;;;;;5089263;28;20119;-76
2021/03/28 01:20:37;;;;;;;7.40;2.38;;;6.00;1.00;;;;;;5090774;28;20046;-75
2021/03/28 01:23:21;;;;;;;6.38;2.65;;;6.00;1.00;;;;;;5085633;28;20048;-75
2021/03/28 01:26:22;;;;;;;6.78;2.40;;;5.90;1.00;;;;;;5083546;28;20148;-77
2021/03/28 01:28:54;;;;;;;5.68;2.05;;;6.00;1.00;;;;;;5087240;28;20047;-75
2021/03/28 01:31:30;;;;;;;8.38;1.88;;;5.90;1.00;;;;;;5088967;28;20055;-75
2021/03/28 01:34:13;;;;;;;7.25;2.53;;;5.90;1.00;;;;;;5086545;28;20087;-76
2021/03/28 01:36:45;;;;;;;7.80;2.20;;;6.00;1.00;;;;;;5091350;28;20062;-75
2021/03/28 01:39:19;;;;;;;4.13;1.85;;;6.00;1.00;;;;;;5090846;28;20127;-75
2021/03/28 01:41:54;;;;;;;7.35;2.42;;;6.00;1.00;;;;;;5088098;28;20047;-76
2021/03/28 01:44:29;;;;;;;6.63;2.30;;;6.00;1.00;;;;;;5082089;28;20441;-76
2021/03/28 01:47:09;;;;;;;;;;;6.00;1.00;;;;;;5088535;28;20051;-75
2021/03/28 01:50:23;;;;;;;5.93;2.20;;;6.10;1.00;;;;;;5091443;28;19920;-76
2021/03/28 01:53:02;;;;;;;9.70;2.17;;;6.10;1.00;;;;;;5075317;28;20054;-75
2021/03/28 01:55:35;;;;;;;6.88;2.10;;;6.10;1.00;;;;;;5085523;28;20059;-76
2021/03/28 01:58:13;;;;;;;7.85;2.10;;;6.10;1.00;;;;;;5085805;28;20127;-75
2021/03/28 02:01:00;;;;;;;8.05;2.30;;;6.20;1.00;;;;;;5086438;28;20581;-76
2021/03/28 02:03:39;;;;;;;7.28;2.53;;;6.20;1.00;;;;;;5089377;28;20139;-77
2021/03/28 02:06:27;;;;;;;5.80;2.20;;;6.20;1.00;;;;;;5089248;28;20048;-75
2021/03/28 02:09:01;;;;;;;8.93;2.53;;;6.20;1.00;;;;;;5089126;28;20097;-75
2021/03/28 02:11:58;;;;;;;4.78;2.08;;;6.30;1.00;;;;;;5091074;28;20044;-75
2021/03/28 02:14:58;;;;;;;8.15;2.20;;;6.30;1.00;;;;;;5082907;28;20044;-76
2021/03/28 02:17:40;;;;;;;3.90;1.88;;;6.40;1.00;;;;;;5089298;28;20052;-76
2021/03/28 02:20:34;;;;;;;6.82;2.17;;;6.40;1.00;;;;;;5089112;28;20040;-77
2021/03/28 02:23:13;;;;;;;3.53;2.28;;;6.50;1.00;;;;;;5088109;28;20056;-76
2021/03/28 02:25:48;;;;;;;6.38;1.90;;;6.50;1.00;;;;;;5090319;28;20054;-76
2021/03/28 02:28:26;;;;;;;7.32;1.90;;;6.50;1.00;;;;;;5092124;28;20054;-75
2021/03/28 02:30:59;;;;;;;8.20;2.35;;;6.50;1.00;;;;;;5092095;28;20131;-76
2021/03/28 02:33:33;;;;;;;5.82;2.05;;;6.50;1.00;;;;;;5090489;28;20052;-75
2021/03/28 02:36:17;;;;;;;10.55;2.40;;;6.60;1.00;;;;;;5088788;28;20060;-76
2021/03/28 02:39:20;;;;;;;3.97;1.98;;;6.60;1.00;;;;;;5093169;28;20048;-76
2021/03/28 02:42:10;;;;;;;5.80;2.38;;;6.60;1.00;;;;;;5067391;28;20048;-76
2021/03/28 02:45:00;;;;;;;5.88;1.88;;;6.50;1.00;;;;;;5086499;28;20052;-76
2021/03/28 02:48:09;;;;;;;5.90;1.80;;;6.50;1.00;;;;;;5091032;28;20585;-76
2021/03/28 02:51:04;;;;;;;6.25;2.17;;;6.50;1.00;;;;;;5054440;28;20109;-77
2021/03/28 02:53:42;;;;;;;6.85;2.10;;;6.60;1.00;;;;;;5085891;28;20051;-77
2021/03/28 02:56:32;;;;;;;9.48;1.98;;;6.60;1.00;;;;;;5087986;28;20135;-76
2021/03/28 02:59:16;;;;;;;8.35;2.03;;;6.60;1.00;;;;;;5084305;28;20048;-76
2021/03/28 03:02:16;;;;;;;5.20;1.75;;;6.60;1.00;;;;;;5087153;28;20569;-76
2021/03/28 03:04:59;;;;;;;9.82;2.33;;;6.60;1.00;;;;;;5069351;28;20056;-76
2021/03/28 03:07:52;;;;;;;5.43;2.15;;;6.50;1.00;;;;;;5085999;28;20044;-75
2021/03/28 03:10:51;;;;;;;6.30;2.03;;;6.50;1.00;;;;;;5087786;28;20048;-76
2021/03/28 03:13:39;;;;;;;4.47;1.83;;;6.50;1.00;;;;;;5086202;28;20524;-77
2021/03/28 03:16:14;;;;;;;8.18;2.08;;;6.40;1.00;;;;;;5085402;28;20052;-76
2021/03/28 03:19:02;;;;;;;6.18;1.75;;;6.40;1.00;;;;;;5088311;28;20052;-76
2021/03/28 03:22:11;;;;;;;5.93;1.88;;;6.40;1.00;;;;;;5088196;28;20797;-76
2021/03/28 03:25:14;;;;;;;4.35;1.83;;;6.30;1.00;;;;;;5026681;28;20088;-77
2021/03/28 03:28:23;;;;;;;5.80;1.92;;;6.30;1.00;;;;;;5089552;28;20301;-77
2021/03/28 03:31:15;;;;;;;7.50;2.33;;;6.30;1.00;;;;;;5078057;28;20102;-75
2021/03/28 03:34:10;;;;;;;6.07;1.90;;;6.20;1.00;;;;;;5085404;28;20074;-76
2021/03/28 03:36:58;;;;;;;7.03;2.05;;;6.20;1.00;;;;;;5089235;28;20131;-77
2021/03/28 03:40:04;;;;;;;5.13;1.67;;;6.10;1.00;;;;;;5089970;28;20048;-77
2021/03/28 03:42:38;;;;;;;;;;;6.10;1.00;;;;;;5076218;28;20051;-75
2021/03/28 03:45:41;;;;;;;7.97;1.88;;;6.00;1.00;;;;;;5085238;28;20018;-76
2021/03/28 03:48:18;;;;;;;5.95;2.33;;;6.00;1.00;;;;;;5088255;28;20494;-76
2021/03/28 03:51:06;;;;;;;4.70;1.70;;;6.00;1.00;;;;;;5089472;28;20086;-76
2021/03/28 03:53:46;;;;;;;4.38;1.58;;;6.00;1.00;;;;;;5056994;28;20105;-76
2021/03/28 03:56:21;;;;;;;8.60;1.77;;;6.00;1.00;;;;;;5087895;28;20048;-77
2021/03/28 03:59:08;;;;;;;7.75;2.00;;;6.10;1.00;;;;;;5089037;28;20066;-76
2021/03/28 04:01:44;;;;;;;5.43;1.98;;;6.10;1.00;;;;;;5086414;28;20056;-76
2021/03/28 04:04:18;;;;;;;7.35;2.25;;;6.10;1.00;;;;;;5081522;28;20052;-76
2021/03/28 04:06:59;;;;;;;5.53;1.52;;;6.10;1.00;;;;;;5086451;28;20044;-76
2021/03/28 04:09:36;;;;;;;5.22;1.70;;;6.10;1.00;;;;;;5089183;28;20048;-76
2021/03/28 04:12:35;;;;;;;7.28;1.90;;;6.10;1.00;;;;;;5089318;28;20059;-76
2021/03/28 04:15:18;;;;;;;7.43;2.03;;;6.10;1.00;;;;;;5086041;28;20052;-75
2021/03/28 04:18:02;;;;;;;4.80;1.60;;;6.10;1.00;;;;;;5088757;28;20410;-76
2021/03/28 04:20:37;;;;;;;7.93;2.22;;;6.10;1.00;;;;;;5085617;28;20044;-76
2021/03/28 04:23:52;;;;;;;6.72;1.55;;;6.20;1.00;;;;;;5087277;28;20052;-76
2021/03/28 04:26:31;;;;;;;7.30;1.75;;;6.10;1.00;;;;;;5036649;28;20135;-75
2021/03/28 04:29:04;;;;;;;4.55;1.77;;;6.10;1.00;;;;;;5080950;28;20048;-77
2021/03/28 04:32:03;;;;;;;5.72;1.90;;;6.10;1.00;;;;;;5089087;28;20048;-77
2021/03/28 04:34:49;;;;;;;11.32;1.90;;;6.20;1.00;;;;;;5082764;28;20060;-77
2021/03/28 04:37:27;;;;;;;9.15;2.83;;;6.20;1.00;;;;;;5090284;28;20048;-77
2021/03/28 04:40:32;;;;;;;5.35;1.83;;;6.20;1.00;;;;;;5092464;28;20416;-76
2021/03/28 04:43:25;;;;;;;6.03;2.20;;;6.10;1.00;;;;;;5088861;28;20637;-76
2021/03/28 04:46:44;;;;;;;8.50;2.40;;;6.00;1.00;;;;;;5089104;28;20052;-78
2021/03/28 04:49:30;;;;;;;4.32;1.63;;;6.00;1.00;;;;;;5088471;28;20052;-77
2021/03/28 04:52:42;;;;;;;5.43;2.17;;;6.10;1.00;;;;;;5091453;28;20051;-76
2021/03/28 04:55:43;;;;;;;5.22;1.90;;;6.00;1.00;;;;;;5085131;28;20608;-77
2021/03/28 04:58:24;;;;;;;7.82;2.45;;;5.90;1.00;;;;;;5087105;28;20050;-79
2021/03/28 05:01:19;;;;;;;5.60;2.20;;;5.80;1.00;;;;;;5088381;28;20044;-76
2021/03/28 05:04:12;;;;;;;5.57;1.75;;;5.80;1.00;;;;;;5087332;28;20052;-77
2021/03/28 05:07:13;;;;;;;7.13;2.92;;;5.70;1.00;;;;;;5089286;28;20059;-77
2021/03/28 05:10:27;;;;;;;3.58;1.70;;;5.80;1.00;;;;;;5087380;28;20398;-76
2021/03/28 05:13:45;;;;;;;5.05;1.95;;;5.80;1.00;;;;;;5071132;28;20485;-77
2021/03/28 05:17:00;;;;;;;7.85;2.00;;;5.60;1.00;;;;;;5074571;28;20058;-77
2021/03/28 05:19:55;;;;;;;8.00;2.13;;;5.50;1.00;;;;;;5092896;28;20058;-76
2021/03/28 05:23:14;;;;;;;9.88;2.40;;;5.40;1.00;;;;;;5089628;28;20048;-78
2021/03/28 05:26:04;;;;;;;7.40;2.55;;;5.40;1.00;;;;;;5053427;28;20052;-76
2021/03/28 05:28:54;;;;;;;5.10;2.10;;;5.70;1.00;;;;;;5087803;28;20122;-76
2021/03/28 05:31:47;;;;;;;7.18;2.63;;;5.90;1.00;;;;;;5087561;28;20058;-76
2021/03/28 05:34:34;;;;;;;6.18;2.72;;;5.90;1.00;;;;;;5084573;28;20401;-78
2021/03/28 05:37:28;;;;;;;10.07;2.45;;;5.70;1.00;;;;;;5090812;28;20052;-77
2021/03/28 05:40:27;;;;;;;8.75;2.10;;;5.60;1.00;;;;;;5091825;28;20133;-77
2021/03/28 05:43:30;;;;;;;9.20;2.08;;;5.50;1.00;;;;;;5084508;28;20520;-76
2021/03/28 05:46:12;;;;;;;7.30;2.92;;;5.60;1.00;;;;;;5086319;28;20577;-76
2021/03/28 05:49:10;;;;;;;8.40;2.90;;;5.60;1.00;;;;;;5086083;28;20416;-77
2021/03/28 05:52:04;;;;;;;6.25;2.85;;;5.60;1.00;;;;;;5088279;28;20048;-77
2021/03/28 05:54:58;;;;;;;5.95;2.45;;;5.60;1.00;;;;;;5084550;28;20056;-76
2021/03/28 05:58:00;;;;;;;8.93;2.85;;;5.80;1.00;;;;;;5083885;28;21392;-76
2021/03/28 06:01:00;;;;;;;7.28;2.60;;;5.80;1.00;;;;;;5091556;28;20511;-77
2021/03/28 06:04:00;;;;;;;5.20;2.13;;;5.70;1.00;;;;;;5087529;28;20044;-77
2021/03/28 06:07:05;;;;;;;4.57;2.30;;;5.70;1.00;;;;;;5087916;28;20051;-77
2021/03/28 06:10:05;;;;;;;6.35;2.40;;;5.70;1.00;;;;;;5086091;28;20056;-77
2021/03/28 06:12:54;;;;;;;5.72;1.98;;;5.60;1.00;;;;;;5087241;28;20052;-77
2021/03/28 06:15:56;;;;;;;3.70;2.10;;;5.60;1.00;;;;;;5088718;28;20062;-78
2021/03/28 06:18:58;;;;;;;6.93;2.55;;;5.70;1.00;;;;;;5089575;28;20408;-76
2021/03/28 06:21:52;;;;;;;6.38;2.83;;;6.10;1.00;;;;;;5090565;28;20079;-77
2021/03/28 06:24:38;;;;;;;12.20;3.00;;;6.10;1.00;;;;;;5083765;28;20059;-77
2021/03/28 06:27:42;;;;;;;6.68;2.58;;;6.20;1.00;;;;;;5089830;28;20048;-77
2021/03/28 06:30:40;;;;;;;7.82;2.97;;;6.10;1.00;;;;;;5087792;28;20086;-77
2021/03/28 06:33:40;;;;;;;7.95;2.92;;;6.40;1.00;;;;;;5084741;28;20134;-78
2021/03/28 06:36:49;;;;;;;7.55;2.60;;;6.70;1.00;;;;;;5085874;28;20076;-78
2021/03/28 06:39:50;;;;;;;8.93;2.83;;;7.00;1.00;;;;;;5060253;28;20051;-78
2021/03/28 06:42:47;;;;;;;7.38;3.08;;;7.00;1.00;;;;;;5086836;28;20058;-77
2021/03/28 06:45:45;;;;;;;6.10;2.50;;;7.30;1.00;;;;;;5084749;28;20063;-77
2021/03/28 06:48:42;;;;;;;9.30;2.80;;;7.40;1.00;;;;;;5055554;28;20052;-78
2021/03/28 06:51:35;;;;;;;9.38;3.45;;;7.50;1.00;;;;;;5088284;28;20040;-77
2021/03/28 06:54:38;;;;;;;10.68;2.85;;;7.70;1.00;;;;;;5084846;28;20058;-78
2021/03/28 06:57:38;;;;;;;6.47;2.65;;;8.00;1.00;;;;;;5069620;28;20079;-77
2021/03/28 07:00:35;;;;;;;8.05;2.95;;;8.00;1.00;;;;;;5086776;28;20048;-77
2021/03/28 07:03:41;;;;;;;7.18;2.65;;;8.10;1.00;;;;;;5084319;28;20058;-78
2021/03/28 07:06:20;;;;;;;6.50;2.58;;;8.50;1.00;;;;;;5087473;28;20047;-76
2021/03/28 07:09:03;;;;;;;7.00;3.00;;;8.40;1.00;;;;;;5089631;28;20051;-76
2021/03/28 07:11:39;;;;;;;4.90;2.53;;;8.40;1.00;;;;;;5089243;28;20048;-77
2021/03/28 07:14:35;;;;;;;6.30;2.83;;;8.40;1.00;;;;;;5086136;28;20063;-76
2021/03/28 07:17:53;;;;;;;6.93;2.60;;;8.50;1.00;;;;;;5087522;28;20044;-77
2021/03/28 07:20:47;;;;;;;8.25;2.50;;;8.60;1.00;;;;;;5065283;28;20159;-77
2021/03/28 07:23:34;;;;;;;7.82;3.28;;;8.80;1.00;;;;;;5085716;28;20048;-76
2021/03/28 07:26:07;;;;;;;11.80;2.55;;;8.80;1.00;;;;;;5087940;28;20052;-77
2021/03/28 07:29:11;;;;;;;4.18;2.50;;;8.40;1.00;;;;;;5089322;28;20131;-77
2021/03/28 07:32:09;;;;;;;8.52;2.90;;;8.70;1.00;;;;;;5088707;28;20582;-76
2021/03/28 07:35:24;;;;;;;10.75;2.90;;;9.00;1.00;;;;;;5083652;28;20054;-76
2021/03/28 07:38:39;;;;;;;6.65;2.67;;;9.20;1.00;;;;;;5087230;28;20452;-76
2021/03/28 07:41:27;;;;;;;6.72;2.97;;;9.10;1.00;;;;;;5086974;28;20413;-77
2021/03/28 07:44:40;;;;;;;6.63;2.70;;;8.80;1.00;;;;;;5083597;28;20055;-76
2021/03/28 07:47:49;;;;;;;5.57;2.90;;;9.30;1.00;;;;;;5087927;28;20058;-77
2021/03/28 07:50:49;;;;;;;10.57;2.95;;;9.50;1.00;;;;;;5085900;28;20044;-77
2021/03/28 07:53:39;;;;;;;11.43;3.85;;;9.60;1.00;;;;;;5084050;28;20048;-76
2021/03/28 07:56:33;;;;;;;7.00;2.40;;;9.70;1.00;;;;;;5085038;28;20050;-76
2021/03/28 07:59:08;;;;;;;7.07;2.60;;;9.60;1.00;;;;;;5087718;28;20150;-77
2021/03/28 08:01:50;;;;;;;6.53;2.50;;;9.80;1.00;;;;;;5088735;28;20044;-77
2021/03/28 08:04:56;;;;;;;9.68;3.13;;;9.80;1.00;;;;;;5080454;28;20051;-76
2021/03/28 08:07:36;;;;;;;;;;;10.00;1.00;;;;;;5088407;28;20062;-77
2021/03/28 08:10:24;;;;;;;7.57;2.90;;;10.10;1.00;;;;;;5089320;28;20586;-79
2021/03/28 08:13:25;;;;;;;6.18;2.10;;;10.20;1.00;;;;;;5087945;28;20135;-77
2021/03/28 08:16:09;;;;;;;7.88;2.75;;;9.90;1.00;;;;;;5090939;28;20051;-76
2021/03/28 08:18:52;;;;;;;9.75;3.05;;;9.70;1.00;;;;;;5088883;28;20936;-78
2021/03/28 08:21:27;;;;;;;5.60;2.47;;;9.70;1.00;;;;;;5090723;28;20044;-78
2021/03/28 08:24:26;;;;;;;8.65;2.50;;;9.90;1.00;;;;;;5088740;28;20135;-77
2021/03/28 08:27:35;;;;;;;3.70;2.25;;;10.10;1.00;;;;;;5090731;28;20402;-77
2021/03/28 08:30:14;;;;;;;8.02;2.63;;;10.40;1.00;;;;;;5092352;28;20054;-77
2021/03/28 08:33:22;;;;;;;6.85;2.47;;;10.50;1.00;;;;;;5088534;28;20051;-78
2021/03/28 08:36:09;;;;;;;9.93;2.50;;;10.70;1.00;;;;;;5089507;28;20048;-77
2021/03/28 08:39:04;;;;;;;7.43;2.08;;;10.80;1.00;;;;;;5087339;28;20608;-77
2021/03/28 08:41:57;;;;;;;13.75;2.55;;;10.80;1.00;;;;;;5089478;28;20052;-77
2021/03/28 08:44:50;;;;;;;8.68;2.60;;;10.90;1.00;;;;;;5084831;28;20133;-77
2021/03/28 08:47:50;;;;;;;6.07;2.25;;;11.10;1.00;;;;;;5091288;28;20052;-76
2021/03/28 08:50:31;;;;;;;6.68;1.80;;;11.00;1.00;;;;;;5090039;28;20052;-77
2021/03/28 08:53:36;;;;;;;9.38;2.10;;;11.00;1.00;;;;;;5089660;28;20101;-76
2021/03/28 08:56:54;;;;;;;6.82;2.13;;;11.20;1.00;;;;;;5091325;28;20052;-78
2021/03/28 08:59:38;;;;;;;9.35;2.35;;;11.30;1.00;;;;;;5091211;28;20494;-77
2021/03/28 09:02:19;;;;;;;7.18;1.90;;;11.40;1.00;;;;;;5088573;28;20040;-78
2021/03/28 09:04:58;;;;;;;7.30;2.10;;;11.50;1.00;;;;;;5087766;28;20063;-78
2021/03/28 09:07:39;;;;;;;5.82;1.60;;;11.60;1.00;;;;;;5087965;28;20060;-77
2021/03/28 09:10:21;;;;;;;6.28;1.70;;;11.70;1.00;;;;;;5087809;28;20466;-76
2021/03/28 09:13:06;;;;;;;6.00;2.40;;;11.70;1.00;;;;;;5085771;28;20150;-76
2021/03/28 09:15:52;;;;;;;7.00;2.00;;;11.90;1.00;;;;;;5085879;28;20135;-78
2021/03/28 09:18:34;;;;;;;5.13;1.92;;;11.90;1.00;;;;;;5085290;28;20044;-76
2021/03/28 09:21:22;;;;;;;;;;;11.80;1.00;;;;;;5092651;28;20441;-78
2021/03/28 09:24:06;;;;;;;9.18;1.83;;;11.90;1.00;;;;;;5088711;28;20406;-78
2021/03/28 09:26:41;;;;;;;7.97;1.80;;;11.70;1.00;;;;;;5092744;28;20062;-76
2021/03/28 09:29:38;;;;;;;4.53;1.65;;;12.10;1.00;;;;;;5091907;28;20044;-77
2021/03/28 09:32:43;;;;;;;5.95;1.88;;;11.80;1.00;;;;;;5089575;28;20119;-76
2021/03/28 09:35:42;;;;;;;7.70;2.05;;;11.70;1.00;;;;;;5069886;28;20041;-76
2021/03/28 09:38:34;;;;;;;5.60;1.40;;;11.70;1.00;;;;;;5089795;28;20052;-76
2021/03/28 09:41:17;;;;;;;5.32;1.33;;;12.10;1.00;;;;;;5091253;28;20520;-77
2021/03/28 09:43:53;;;;;;;5.82;1.83;;;12.50;1.00;;;;;;5082484;28;20048;-77
2021/03/28 09:46:43;;;;;;;6.18;1.52;;;12.50;1.00;;;;;;5090869;28;20048;-76
2021/03/28 09:49:38;;;;;;;5.82;1.55;;;12.70;1.00;;;;;;5082120;28;20045;-77
2021/03/28 09:52:28;;;;;;;;;;;12.70;1.00;;;;;;5086639;28;20050;-76
2021/03/28 09:55:39;;;;;;;3.63;1.20;;;12.60;1.00;;;;;;5079951;28;19920;-76
2021/03/28 09:58:37;;;;;;;7.60;1.50;;;12.40;1.00;;;;;;5089696;28;20127;-78
2021/03/28 10:01:39;;;;;;;5.70;1.65;;;12.90;1.00;;;;;;5086298;28;20048;-77
2021/03/28 10:04:18;;;;;;;5.10;1.60;;;12.10;1.00;;;;;;5082215;28;20048;-76
2021/03/28 10:06:55;;;;;;;3.70;1.35;;;12.70;1.00;;;;;;5084366;28;20057;-77
2021/03/28 10:09:55;;;;;;;4.07;1.30;;;12.90;1.00;;;;;;5086825;28;20044;-78
2021/03/28 10:12:30;;;;;;;6.13;1.92;;;13.00;1.00;;;;;;5086965;28;20048;-78
2021/03/28 10:15:04;;;;;;;6.32;1.30;;;12.80;1.00;;;;;;5083793;28;20071;-78
2021/03/28 10:17:46;;;;;;;5.18;1.50;;;13.10;1.00;;;;;;5088064;28;20054;-78
2021/03/28 10:20:21;;;;;;;3.78;1.60;;;12.40;1.00;;;;;;5088736;28;20083;-78
2021/03/28 10:23:01;;;;;;;4.32;1.58;;;12.60;1.00;;;;;;5081541;28;20402;-78
2021/03/28 10:25:37;;;;;;;6.50;1.50;;;12.90;1.00;;;;;;5085468;28;20094;-78
2021/03/28 10:28:53;;;;;;;3.63;1.42;;;12.70;1.00;;;;;;5083926;28;20106;-77
2021/03/28 10:31:30;;;;;;;3.97;1.65;;;12.90;1.00;;;;;;5084936;28;20133;-78
2021/03/28 10:34:23;;;;;;;5.25;1.70;;;12.70;1.00;;;;;;5078208;28;20091;-79
2021/03/28 10:37:00;;;;;;;5.53;1.45;;;12.90;1.00;;;;;;5086076;28;20040;-78
2021/03/28 10:39:49;;;;;;;5.10;1.60;;;13.10;1.00;;;;;;5088044;28;20417;-77
2021/03/28 10:42:32;;;;;;;25.65;2.17;;;13.00;1.00;;;;;;5083972;28;20051;-78
2021/03/28 10:45:21;;;;;;;4.53;1.75;;;13.30;1.00;;;;;;5086978;28;20056;-75
2021/03/28 10:48:28;;;;;;;3.95;1.35;;;13.50;1.00;;;;;;5081777;28;20454;-72
2021/03/28 10:51:41;;;;;;;4.80;1.40;;;14.00;1.00;;;;;;5086160;28;20101;-69
2021/03/28 10:54:41;;;;;;;5.93;1.50;;;14.20;1.00;;;;;;5080983;28;20055;-70
2021/03/28 10:58:00;;;;;;;4.53;1.50;;;13.70;1.00;;;;;;5071759;28;20044;-69
2021/03/28 11:00:56;;;;;;;4.50;1.63;;;13.50;1.00;;;;;;5086464;28;20062;-68
2021/03/28 11:03:52;;;;;;;3.25;1.42;;;13.70;1.00;;;;;;5083296;28;20139;-68
2021/03/28 11:06:43;;;;;;;3.42;1.60;;;14.00;1.00;;;;;;5067843;28;20276;-67
2021/03/28 11:09:16;;;;;;;;;;;13.50;1.00;;;;;;5085266;28;20533;-69
2021/03/28 11:12:17;;;;;;;4.80;1.77;;;13.70;1.00;;;;;;5086755;28;20302;-68
2021/03/28 11:15:11;;;;;;;7.18;2.08;;;13.60;1.00;;;;;;5033393;28;20051;-67
2021/03/28 11:18:00;;;;;;;6.55;1.75;;;13.90;1.00;;;;;;5087143;28;20051;-69
2021/03/28 11:20:36;;;;;;;3.97;1.65;;;14.00;1.00;;;;;;5083309;28;20052;-69
2021/03/28 11:23:48;;;;;;;8.48;1.77;;;14.00;1.00;;;;;;5082806;28;20056;-69
2021/03/28 11:26:44;;;;;;;5.93;1.70;;;14.10;1.00;;;;;;5076254;28;20176;-69
2021/03/28 11:29:33;;;;;;;7.07;1.73;;;14.30;1.00;;;;;;5086947;28;20123;-69
2021/03/28 11:32:05;;;;;;;7.32;2.17;;;14.40;1.00;;;;;;5085593;28;20458;-69
2021/03/28 11:34:39;;;;;;;3.63;1.85;;;14.50;1.00;;;;;;5079782;28;20117;-68
2021/03/28 11:37:34;;;;;;;7.68;1.77;;;14.40;1.00;;;;;;5085341;28;20058;-70
2021/03/28 11:40:21;;;;;;;6.20;2.10;;;14.60;1.00;;;;;;5085485;28;20127;-69
2021/03/28 11:43:11;;;;;;;4.53;1.63;;;14.70;1.00;;;;;;5082669;28;20048;-69
2021/03/28 11:45:42;;;;;;;4.57;1.80;;;15.00;1.00;;;;;;5089886;28;20142;-69
2021/03/28 11:48:32;;;;;;;3.97;1.80;;;14.70;1.00;;;;;;5093158;28;20040;-68
2021/03/28 11:51:19;;;;;;;5.25;1.63;;;14.70;1.00;;;;;;5093543;28;20041;-69
2021/03/28 11:53:49;;;;;;;5.30;1.90;;;15.00;1.00;;;;;;5088588;28;20131;-68
2021/03/28 11:56:37;;;;;;;6.15;1.83;;;15.20;1.00;;;;;;5091732;28;20044;-69
2021/03/28 11:59:07;;;;;;;5.43;2.03;;;15.10;1.00;;;;;;5091578;28;20054;-68
2021/03/28 12:02:10;;;;;;;6.38;1.60;;;15.00;1.00;;;;;;5091864;28;20051;-69
2021/03/28 12:04:40;;;;;;;5.57;2.38;;;15.30;1.00;;;;;;5080110;28;20068;-68
2021/03/28 12:07:30;;;;;;;6.03;1.73;;;14.80;1.00;;;;;;5089286;28;20093;-69
2021/03/28 12:10:16;;;;;;;5.07;2.25;;;15.00;1.00;;;;;;5089893;28;20072;-68
2021/03/28 12:13:04;;;;;;;5.07;2.00;;;14.60;1.00;;;;;;5089583;28;20048;-69
2021/03/28 12:15:54;;;;;;;4.40;1.40;;;14.60;1.00;;;;;;5090426;28;20059;-68
2021/03/28 12:18:35;;;;;;;4.80;1.75;;;14.90;1.00;;;;;;5093606;28;20052;-69
2021/03/28 12:21:39;;;;;;;8.02;1.98;;;14.70;1.00;;;;;;5092717;28;20040;-70
2021/03/28 12:24:09;;;;;;;6.13;1.77;;;15.30;1.00;;;;;;5085707;28;20055;-69
2021/03/28 12:26:50;;;;;;;5.05;1.40;;;15.10;1.00;;;;;;5093287;28;20221;-69
2021/03/28 12:29:45;;;;;;;6.35;1.77;;;15.00;1.00;;;;;;5091856;28;20062;-69
2021/03/28 12:33:04;;;;;;;7.20;1.85;;;15.00;1.00;;;;;;5091007;28;20044;-68
2021/03/28 12:36:01;;;;;;;5.25;1.95;;;14.70;1.00;;;;;;5089992;28;20050;-69
2021/03/28 12:38:48;;;;;;;5.00;1.80;;;15.00;1.00;;;;;;5092420;28;20512;-69
2021/03/28 12:41:22;;;;;;;3.55;1.52;;;15.10;1.00;;;;;;5080025;28;20036;-70
2021/03/28 12:43:54;;;;;;;3.97;1.52;;;15.20;1.00;;;;;;5085171;28;20052;-70
2021/03/28 12:46:52;;;;;;;5.40;2.03;;;15.40;1.00;;;;;;5090112;28;20506;-69
2021/03/28 12:49:23;;;;;;;4.20;1.70;;;15.40;1.00;;;;;;5092677;28;20055;-69
2021/03/28 12:52:02;;;;;;;3.88;1.42;;;15.30;1.00;;;;;;5092202;28;20048;-70
2021/03/28 12:54:52;;;;;;;2.95;1.60;;;15.60;1.00;;;;;;5084975;28;20070;-68
2021/03/28 12:57:27;;;;;;;5.35;2.25;;;15.60;1.00;;;;;;5087868;28;20139;-68
2021/03/28 12:59:59;;;;;;;6.30;1.88;;;15.40;1.00;;;;;;5088188;28;20513;-70
2021/03/28 13:02:29;;;;;;;5.20;1.85;;;15.70;1.00;;;;;;5087265;28;20046;-69
2021/03/28 13:05:00;;;;;;;6.10;1.42;;;15.90;1.00;;;;;;5084280;28;20048;-69
2021/03/28 13:07:42;;;;;;;3.00;1.55;;;15.60;1.00;;;;;;5086153;28;20075;-69
2021/03/28 13:10:21;;;;;;;7.82;1.95;;;15.70;1.00;;;;;;5089759;28;20048;-69
2021/03/28 13:12:56;;;;;;;3.65;1.50;;;15.60;1.00;;;;;;5082703;28;20052;-70
2021/03/28 13:15:27;;;;;;;6.35;2.13;;;15.70;1.00;;;;;;5086502;28;20569;-69
2021/03/28 13:18:22;;;;;;;4.75;1.48;;;15.90;1.00;;;;;;5087123;28;20074;-70
2021/03/28 13:20:52;;;;;;;8.85;2.15;;;16.00;1.00;;;;;;5086985;28;20048;-70
2021/03/28 13:23:35;;;;;;;3.55;1.65;;;15.60;1.00;;;;;;5084519;28;20066;-69
2021/03/28 13:26:09;;;;;;;2.70;1.27;;;15.80;1.00;;;;;;5084324;28;20055;-68
2021/03/28 13:28:37;;;;;;;5.75;1.70;;;15.90;1.00;;;;;;5085855;28;20045;-68
2021/03/28 13:31:32;;;;;;;5.50;1.83;;;16.20;1.00;;;;;;5088869;28;20048;-69
2021/03/28 13:34:06;;;;;;;5.40;1.20;;;16.20;1.00;;;;;;5083013;28;20048;-68
2021/03/28 13:36:40;;;;;;;4.43;1.80;;;16.50;1.00;;;;;;5088537;28;20048;-68
2021/03/28 13:39:16;;;;;;;3.25;1.30;;;16.30;1.00;;;;;;5085382;28;20044;-68
2021/03/28 13:41:49;;;;;;;6.15;1.90;;;16.20;1.00;;;;;;5089461;28;20040;-68
2021/03/28 13:44:25;;;;;;;3.67;1.58;;;16.00;1.00;;;;;;5079356;28;20056;-68
2021/03/28 13:46:56;;;;;;;5.13;1.50;;;16.10;1.00;;;;;;5088396;28;20059;-70
2021/03/28 13:49:34;;;;;;;4.32;1.63;;;16.30;1.00;;;;;;5087601;28;20072;-69
2021/03/28 13:52:18;;;;;;;2.53;1.15;;;16.30;1.00;;;;;;5088336;28;20506;-69
2021/03/28 13:54:47;;;;;;;5.28;1.50;;;16.40;1.00;;;;;;5082904;28;20059;-68
2021/03/28 13:57:25;;;;;;;2.92;1.30;;;16.50;1.00;;;;;;5088422;28;20503;-68
2021/03/28 14:00:00;;;;;;;4.22;1.40;;;16.50;1.00;;;;;;5087079;28;20040;-70
2021/03/28 14:02:30;;;;;;;6.30;2.10;;;15.60;1.00;;;;;;5087132;28;20770;-70
2021/03/28 14:05:00;;;;;;;5.35;1.60;;;16.10;1.00;;;;;;5082588;28;20081;-70
2021/03/28 14:07:33;;;;;;;4.47;1.70;;;16.30;1.00;;;;;;5085021;28;20513;-70
2021/03/28 14:10:15;;;;;;;5.43;1.52;;;16.30;1.00;;;;;;5089460;28;20049;-69
2021/03/28 14:12:50;;;;;;;4.85;1.70;;;16.30;1.00;;;;;;5085090;28;20088;-69
2021/03/28 14:15:39;;;;;;;6.10;1.77;;;16.30;1.00;;;;;;5083275;28;20614;-69
2021/03/28 14:18:24;;;;;;;2.45;1.25;;;16.40;1.00;;;;;;5086078;28;20044;-70
2021/03/28 14:21:09;;;;;;;6.32;1.48;;;16.00;1.00;;;;;;5086486;28;20049;-70
2021/03/28 14:23:42;;;;;;;;;;;16.30;1.00;;;;;;5085106;28;20513;-69
2021/03/28 14:26:24;;;;;;;6.10;1.65;;;16.70;1.00;;;;;;5086806;28;19923;-69
2021/03/28 14:28:55;;;;;;;3.78;1.52;;;16.50;1.00;;;;;;5086386;28;20058;-70
2021/03/28 14:31:36;;;;;;;3.53;1.52;;;16.50;1.00;;;;;;5085446;28;20048;-70
2021/03/28 14:34:31;;;;;;;5.22;1.73;;;16.30;1.00;;;;;;5079786;28;20076;-69
2021/03/28 14:37:33;;;;;;;7.88;2.17;;;16.40;1.00;;;;;;5086641;28;20516;-69
2021/03/28 14:40:31;;;;;;;5.43;1.42;;;16.30;1.00;;;;;;5071916;28;20051;-69
2021/03/28 14:43:17;;;;;;;4.05;1.42;;;16.40;1.00;;;;;;5077751;28;20121;-70
2021/03/28 14:45:56;;;;;;;3.28;1.35;;;16.30;1.00;;;;;;5084319;28;20051;-69
2021/03/28 14:48:37;;;;;;;5.20;1.70;;;16.00;1.00;;;;;;5087066;28;20055;-69
2021/03/28 14:51:10;;;;;;;3.22;1.38;;;15.90;1.00;;;;;;5087365;28;20044;-69
2021/03/28 14:53:44;;;;;;;6.88;1.70;;;16.00;1.00;;;;;;5082774;28;20066;-69